createdAt,value
2019-04-25T00:01:01.175Z,75.52
2019-04-25T00:03:36.782Z,76.16
2019-04-25T00:06:21.573Z,77.40
2019-04-25T00:08:56.066Z,77.21
2019-04-25T00:11:48.130Z,78.14
2019-04-25T00:14:34.207Z,78.75
2019-04-25T00:17:08.092Z,79.10
2019-04-25T00:19:53.988Z,80.51
2019-04-25T00:22:46.027Z,81.31
2019-04-25T00:25:49.243Z,82.80
2019-04-25T00:28:41.996Z,83.17
2019-04-25T00:31:27.235Z,83.05
2019-04-25T00:34:12.887Z,83.43
2019-04-25T00:40:04.738Z,83.52
2019-04-25T00:42:38.914Z,84.03
2019-04-25T00:45:22.315Z,84.60
2019-04-25T00:47:55.657Z,84.73
2019-04-25T00:50:31.912Z,84.97
2019-04-25T00:53:06.812Z,84.85
2019-04-25T00:55:41.464Z,84.61
2019-04-25T00:58:45.037Z,84.73
2019-04-25T01:01:55.940Z,84.65
2019-04-25T01:04:33.604Z,84.92
2019-04-25T01:07:07.557Z,84.72
2019-04-25T01:09:42.317Z,84.65
2019-04-25T01:12:18.304Z,84.45
2019-04-25T01:14:53.518Z,84.05
2019-04-25T01:17:27.308Z,84.19
2019-04-25T01:20:04.093Z,83.98
2019-04-25T01:22:39.227Z,83.92
2019-04-25T01:25:13.903Z,83.65
2019-04-25T01:27:48.214Z,83.49
2019-04-25T01:33:15.905Z,82.82
2019-04-25T01:36:04.530Z,83.10
2019-04-25T01:39:00.284Z,82.66
2019-04-25T01:41:54.790Z,82.58
2019-04-25T01:44:39.493Z,82.68
2019-04-25T01:47:29.971Z,82.20
2019-04-25T01:50:13.887Z,82.27
2019-04-25T01:52:57.137Z,82.86
2019-04-25T01:55:51.786Z,82.37
2019-04-25T01:58:15.421Z,82.33
2019-04-25T02:00:51.427Z,82.13
2019-04-25T02:03:35.670Z,81.78
2019-04-25T02:06:10.360Z,81.67
2019-04-25T02:08:44.074Z,81.96
2019-04-25T02:11:45.941Z,82.20
2019-04-25T02:14:45.816Z,82.66
2019-04-25T02:17:19.705Z,83.18
2019-04-25T02:19:56.460Z,83.30
2019-04-25T02:22:35.710Z,82.88
2019-04-25T02:25:19.136Z,82.53
2019-04-25T02:27:55.884Z,82.34
2019-04-25T02:30:31.052Z,82.26
2019-04-25T02:33:08.776Z,82.03
2019-04-25T02:35:43.094Z,81.90
2019-04-25T02:38:16.945Z,81.92
2019-04-25T02:40:50.773Z,81.89
2019-04-25T02:43:26.615Z,82.00
2019-04-25T02:46:39.898Z,82.35
2019-04-25T02:49:35.471Z,82.72
2019-04-25T02:52:11.056Z,82.81
2019-04-25T02:54:44.772Z,82.80
2019-04-25T02:57:18.414Z,82.69
2019-04-25T02:59:54.818Z,82.80
2019-04-25T03:02:29.403Z,83.08
2019-04-25T03:05:14.067Z,83.27
2019-04-25T03:07:59.415Z,83.30
2019-04-25T03:10:34.901Z,83.53
2019-04-25T03:13:39.123Z,83.82
2019-04-25T03:16:13.956Z,83.45
2019-04-25T03:18:59.387Z,82.69
2019-04-25T03:21:54.871Z,82.81
2019-04-25T03:24:49.321Z,82.68
2019-04-25T03:27:22.845Z,82.53
2019-04-25T03:29:56.002Z,83.15
2019-04-25T03:32:38.996Z,83.15
2019-04-25T03:35:27.889Z,83.18
2019-04-25T03:38:10.265Z,83.25
2019-04-25T03:40:44.411Z,84.02
2019-04-25T03:43:27.189Z,84.36
2019-04-25T03:46:10.348Z,84.15
2019-04-25T03:48:53.948Z,84.08
2019-04-25T03:51:27.218Z,84.14
2019-04-25T03:54:01.675Z,83.95
2019-04-25T03:56:35.735Z,84.01
2019-04-25T03:59:10.571Z,83.99
2019-04-25T04:01:54.280Z,83.82
2019-04-25T04:04:28.176Z,83.63
2019-04-25T04:07:05.836Z,83.41
2019-04-25T04:09:46.040Z,83.12
2019-04-25T04:12:19.947Z,83.07
2019-04-25T04:14:54.455Z,83.20
2019-04-25T04:17:36.314Z,83.23
2019-04-25T04:20:27.528Z,83.35
2019-04-25T04:23:19.623Z,83.41
2019-04-25T04:26:16.955Z,83.43
2019-04-25T04:29:03.069Z,83.43
2019-04-25T04:31:36.912Z,83.01
2019-04-25T04:34:10.666Z,82.73
2019-04-25T04:36:46.567Z,82.76
2019-04-25T04:39:31.257Z,83.26
2019-04-25T04:42:04.863Z,83.36
2019-04-25T04:44:39.819Z,83.41
2019-04-25T04:47:15.325Z,83.14
2019-04-25T04:50:01.239Z,83.01
2019-04-25T04:52:44.128Z,83.14
2019-04-25T04:55:26.330Z,83.22
2019-04-25T04:58:01.474Z,83.20
2019-04-25T05:00:35.182Z,83.10
2019-04-25T05:03:17.166Z,82.77
2019-04-25T05:06:37.557Z,82.72
2019-04-25T05:09:16.530Z,82.40
2019-04-25T05:11:59.525Z,82.45
2019-04-25T05:14:33.728Z,82.77
2019-04-25T05:17:06.877Z,83.00
2019-04-25T05:19:40.306Z,83.20
2019-04-25T05:22:28.455Z,83.27
2019-04-25T05:25:01.638Z,83.39
2019-04-25T05:27:50.795Z,83.35
2019-04-25T05:30:26.702Z,83.30
2019-04-25T05:33:00.531Z,83.38
2019-04-25T05:35:44.152Z,83.60
2019-04-25T05:38:17.975Z,83.46
2019-04-25T05:40:58.118Z,83.11
2019-04-25T05:43:33.360Z,83.09
2019-04-25T05:46:07.645Z,83.01
2019-04-25T05:48:56.501Z,82.95
2019-04-25T05:51:39.554Z,82.72
2019-04-25T05:54:14.129Z,82.42
2019-04-25T05:56:47.298Z,82.34
2019-04-25T05:59:21.790Z,81.85
2019-04-25T06:02:10.208Z,82.31
2019-04-25T06:04:53.490Z,82.04
2019-04-25T06:07:27.907Z,82.06
2019-04-25T06:10:31.882Z,82.07
2019-04-25T06:13:30.144Z,81.87
2019-04-25T06:16:08.304Z,81.67
2019-04-25T06:18:54.793Z,81.92
2019-04-25T06:21:30.128Z,81.99
2019-04-25T06:24:26.235Z,81.84
2019-04-25T06:27:19.587Z,81.60
2019-04-25T06:30:04.426Z,81.00
2019-04-25T06:32:39.164Z,81.29
2019-04-25T06:35:26.629Z,81.53
2019-04-25T06:38:09.203Z,81.00
2019-04-25T06:40:43.767Z,81.17
2019-04-25T06:43:30.634Z,81.51
2019-04-25T06:46:41.057Z,81.67
2019-04-25T06:49:26.255Z,81.39
2019-04-25T06:52:01.858Z,81.28
2019-04-25T06:54:35.403Z,80.62
2019-04-25T06:57:08.951Z,79.30
2019-04-25T06:59:43.702Z,79.19
2019-04-25T07:02:17.403Z,80.40
2019-04-25T07:04:51.640Z,79.77
2019-04-25T07:07:35.067Z,79.51
2019-04-25T07:10:08.799Z,79.58
2019-04-25T07:12:42.323Z,78.91
2019-04-25T07:15:17.898Z,78.78
2019-04-25T07:17:54.142Z,78.27
2019-04-25T07:20:37.899Z,77.39
2019-04-25T07:23:11.734Z,76.28
2019-04-25T07:26:05.290Z,75.47
2019-04-25T07:28:46.961Z,74.87
2019-04-25T07:31:38.262Z,75.54
2019-04-25T07:34:15.836Z,77.05
2019-04-25T07:37:00.559Z,77.26
2019-04-25T07:39:35.582Z,74.51
2019-04-25T07:42:10.295Z,74.80
2019-04-25T07:44:51.711Z,74.89
2019-04-25T07:47:20.064Z,74.24
2019-04-25T07:49:54.217Z,72.64
2019-04-25T07:52:37.752Z,73.84
2019-04-25T07:55:23.427Z,73.96
2019-04-25T07:57:57.720Z,72.60
2019-04-25T08:00:31.426Z,73.08
2019-04-25T08:03:05.287Z,71.35
2019-04-25T08:05:48.476Z,70.33
2019-04-25T08:08:23.518Z,69.41
2019-04-25T08:11:09.643Z,68.76
2019-04-25T08:13:51.430Z,67.48
2019-04-25T08:16:28.858Z,67.57
2019-04-25T08:19:03.963Z,67.64
2019-04-25T08:21:47.359Z,66.97
2019-04-25T08:24:20.809Z,66.40
2019-04-25T08:26:54.024Z,66.53
2019-04-25T08:29:28.190Z,65.33
2019-04-25T08:32:01.790Z,66.16
2019-04-25T08:34:36.295Z,66.43
2019-04-25T08:37:18.257Z,63.55
2019-04-25T08:39:45.829Z,63.03
2019-04-25T08:42:35.827Z,65.06
2019-04-25T08:45:09.627Z,64.22
2019-04-25T08:47:55.329Z,62.29
2019-04-25T08:50:55.723Z,61.54
2019-04-25T08:53:51.494Z,60.83
2019-04-25T08:56:29.516Z,60.49
2019-04-25T08:59:32.793Z,61.64
2019-04-25T09:02:38.879Z,60.97
2019-04-25T09:05:36.079Z,61.45
2019-04-25T09:08:21.229Z,61.04
2019-04-25T09:11:03.850Z,58.30
2019-04-25T09:13:38.645Z,58.16
2019-04-25T09:16:24.116Z,58.43
2019-04-25T09:18:57.284Z,60.36
2019-04-25T09:21:30.559Z,59.26
2019-04-25T09:24:13.675Z,59.56
2019-04-25T09:26:46.974Z,56.55
2019-04-25T09:29:29.296Z,57.97
2019-04-25T09:32:03.733Z,56.62
2019-04-25T09:34:38.111Z,53.33
2019-04-25T09:37:14.248Z,54.17
2019-04-25T09:40:04.261Z,52.89
2019-04-25T09:42:37.959Z,55.23
2019-04-25T09:45:24.733Z,53.24
2019-04-25T09:48:00.364Z,52.30
2019-04-25T09:51:05.753Z,54.76
2019-04-25T09:54:09.943Z,52.91
2019-04-25T09:56:47.199Z,54.81
2019-04-25T09:59:28.143Z,51.03
2019-04-25T10:01:57.925Z,51.83
2019-04-25T10:04:31.251Z,52.49
2019-04-25T10:07:14.335Z,50.27
2019-04-25T10:09:58.285Z,50.96
2019-04-25T10:12:44.209Z,51.33
2019-04-25T10:16:01.069Z,52.12
2019-04-25T10:18:35.123Z,51.90
2019-04-25T10:21:12.145Z,50.18
2019-04-25T10:23:46.755Z,50.47
2019-04-25T10:26:22.909Z,48.88
2019-04-25T10:29:07.858Z,49.50
2019-04-25T10:31:41.149Z,48.90
2019-04-25T10:34:14.484Z,49.15
2019-04-25T10:36:48.990Z,50.25
2019-04-25T10:39:23.851Z,47.25
2019-04-25T10:41:57.108Z,47.72
2019-04-25T10:44:30.907Z,46.07
2019-04-25T10:47:04.612Z,45.51
2019-04-25T10:49:37.848Z,45.79
2019-04-25T10:52:11.822Z,44.42
2019-04-25T10:54:46.661Z,45.61
2019-04-25T10:57:20.204Z,44.74
2019-04-25T11:00:05.623Z,46.24
2019-04-25T11:02:29.943Z,43.84
2019-04-25T11:05:14.118Z,44.82
2019-04-25T11:07:48.653Z,41.97
2019-04-25T11:10:23.913Z,42.13
2019-04-25T11:12:57.873Z,42.47
2019-04-25T11:15:31.687Z,41.85
2019-04-25T11:18:05.259Z,42.25
2019-04-25T11:20:38.896Z,43.12
2019-04-25T11:23:13.886Z,41.13
2019-04-25T11:25:47.891Z,42.45
2019-04-25T11:28:23.445Z,42.50
2019-04-25T11:31:07.944Z,42.85
2019-04-25T11:33:55.654Z,42.48
2019-04-25T11:36:38.702Z,42.17
2019-04-25T11:39:32.578Z,41.64
2019-04-25T11:42:29.438Z,41.57
2019-04-25T11:45:14.494Z,40.21
2019-04-25T11:48:03.273Z,39.63
2019-04-25T11:50:51.019Z,40.20
2019-04-25T11:53:34.321Z,40.18
2019-04-25T11:56:17.506Z,39.85
2019-04-25T11:58:51.660Z,39.71
2019-04-25T12:01:37.678Z,38.59
2019-04-25T12:04:21.241Z,39.35
2019-04-25T12:06:55.127Z,39.12
2019-04-25T12:09:28.676Z,40.19
2019-04-25T12:12:03.552Z,40.49
2019-04-25T12:14:38.387Z,41.10
2019-04-25T12:17:21.023Z,42.75
2019-04-25T12:20:05.187Z,41.18
2019-04-25T12:22:48.301Z,42.11
2019-04-25T12:25:23.719Z,42.22
2019-04-25T12:27:57.266Z,40.19
2019-04-25T12:30:38.059Z,41.01
2019-04-25T12:33:21.018Z,42.64
2019-04-25T12:36:03.421Z,40.27
2019-04-25T12:38:46.317Z,40.09
2019-04-25T12:41:19.982Z,40.66
2019-04-25T12:44:12.051Z,38.98
2019-04-25T12:46:46.137Z,39.66
2019-04-25T12:49:19.972Z,39.98
2019-04-25T12:51:53.469Z,39.15
2019-04-25T12:54:27.402Z,38.04
2019-04-25T12:57:09.731Z,37.93
2019-04-25T12:59:45.016Z,37.42
2019-04-25T13:02:18.587Z,36.91
2019-04-25T13:04:55.453Z,36.21
2019-04-25T13:07:28.965Z,37.00
2019-04-25T13:10:02.932Z,36.24
2019-04-25T13:12:37.462Z,37.99
2019-04-25T13:15:11.177Z,36.75
2019-04-25T13:17:45.204Z,35.50
2019-04-25T13:20:19.037Z,36.16
2019-04-25T13:23:03.249Z,36.84
2019-04-25T13:25:36.860Z,38.96
2019-04-25T13:31:27.769Z,38.20
2019-04-25T13:34:35.696Z,36.38
2019-04-25T13:37:17.469Z,34.78
2019-04-25T13:40:00.555Z,35.13
2019-04-25T13:42:45.242Z,36.06
2019-04-25T13:45:33.324Z,36.12
2019-04-25T13:48:25.585Z,35.35
2019-04-25T13:51:07.525Z,35.14
2019-04-25T13:53:50.868Z,33.81
2019-04-25T13:56:40.414Z,35.00
2019-04-25T13:59:12.677Z,34.18
2019-04-25T14:01:46.948Z,34.77
2019-04-25T14:04:21.019Z,35.39
2019-04-25T14:06:54.584Z,34.77
2019-04-25T14:09:29.912Z,33.90
2019-04-25T14:12:04.049Z,35.48
2019-04-25T14:14:47.140Z,34.50
2019-04-25T14:17:48.967Z,33.25
2019-04-25T14:20:32.686Z,33.51
2019-04-25T14:23:08.380Z,34.38
2019-04-25T14:25:42.788Z,34.32
2019-04-25T14:28:31.792Z,34.37
2019-04-25T14:31:35.359Z,33.96
2019-04-25T14:34:07.500Z,35.04
2019-04-25T14:36:41.159Z,34.28
2019-04-25T14:39:16.072Z,35.27
2019-04-25T14:41:49.345Z,32.96
2019-04-25T14:44:23.578Z,34.25
2019-04-25T14:46:57.117Z,33.57
2019-04-25T14:49:30.661Z,33.76
2019-04-25T14:52:03.844Z,32.86
2019-04-25T14:55:03.757Z,32.71
2019-04-25T14:57:38.025Z,32.78
2019-04-25T15:00:30.314Z,33.67
2019-04-25T15:03:05.724Z,34.08
2019-04-25T15:05:41.962Z,33.74
2019-04-25T15:08:16.466Z,32.83
2019-04-25T15:10:50.228Z,33.73
2019-04-25T15:13:33.051Z,34.80
2019-04-25T15:16:07.186Z,34.24
2019-04-25T15:18:56.295Z,35.37
2019-04-25T15:21:38.952Z,35.83
2019-04-25T15:24:27.508Z,36.10
2019-04-25T15:27:01.715Z,36.52
2019-04-25T15:29:44.545Z,35.81
2019-04-25T15:32:30.991Z,36.08
2019-04-25T15:35:04.977Z,36.81
2019-04-25T15:37:43.358Z,36.28
2019-04-25T15:40:31.271Z,37.36
2019-04-25T15:43:29.731Z,36.74
2019-04-25T15:46:32.305Z,36.89
2019-04-25T15:49:05.528Z,36.64
2019-04-25T15:51:39.456Z,38.16
2019-04-25T15:54:12.730Z,38.64
2019-04-25T15:56:46.227Z,37.99
2019-04-25T15:59:20.105Z,38.43
2019-04-25T16:01:53.701Z,36.50
2019-04-25T16:04:28.216Z,37.72
2019-04-25T16:07:17.279Z,37.27
2019-04-25T16:09:59.432Z,37.69
2019-04-25T16:12:32.879Z,38.85
2019-04-25T16:15:06.750Z,38.52
2019-04-25T16:17:41.920Z,38.48
2019-04-25T16:20:15.102Z,38.04
2019-04-25T16:22:48.912Z,37.88
2019-04-25T16:25:23.235Z,37.95
2019-04-25T16:28:05.746Z,37.74
2019-04-25T16:30:39.094Z,37.51
2019-04-25T16:33:12.637Z,37.48
2019-04-25T16:35:45.959Z,37.21
2019-04-25T16:38:20.141Z,36.88
2019-04-25T16:40:53.300Z,38.07
2019-04-25T16:43:28.617Z,36.66
2019-04-25T16:46:24.582Z,37.39
2019-04-25T16:48:58.543Z,37.53
2019-04-25T16:51:31.703Z,37.64
2019-04-25T16:54:05.712Z,36.91
2019-04-25T16:56:39.490Z,37.08
2019-04-25T16:59:17.480Z,37.44
2019-04-25T17:01:52.760Z,36.47
2019-04-25T17:04:25.998Z,37.43
2019-04-25T17:07:00.067Z,38.61
2019-04-25T17:09:32.187Z,38.51
2019-04-25T17:12:07.671Z,38.83
2019-04-25T17:15:05.455Z,39.22
2019-04-25T17:18:12.425Z,38.67
2019-04-25T17:21:04.536Z,39.21
2019-04-25T17:23:38.034Z,40.11
2019-04-25T17:26:11.850Z,40.49
2019-04-25T17:28:56.045Z,39.44
2019-04-25T17:32:03.719Z,40.19
2019-04-25T17:34:54.234Z,40.65
2019-04-25T17:37:36.235Z,40.46
2019-04-25T17:40:28.759Z,41.30
2019-04-25T17:43:10.948Z,42.08
2019-04-25T17:45:37.313Z,42.44
2019-04-25T17:48:09.341Z,42.52
2019-04-25T17:50:43.889Z,42.21
2019-04-25T17:53:26.357Z,42.71
2019-04-25T17:56:00.193Z,42.07
2019-04-25T17:58:43.339Z,43.37
2019-04-25T18:01:25.391Z,43.79
2019-04-25T18:03:58.864Z,43.84
2019-04-25T18:06:32.028Z,43.74
2019-04-25T18:09:21.368Z,43.67
2019-04-25T18:11:54.894Z,42.51
2019-04-25T18:14:30.656Z,43.81
2019-04-25T18:17:04.279Z,43.49
2019-04-25T18:19:42.621Z,43.90
2019-04-25T18:22:35.393Z,45.04
2019-04-25T18:25:36.936Z,44.78
2019-04-25T18:28:32.337Z,45.17
2019-04-25T18:31:07.093Z,44.90
2019-04-25T18:33:40.337Z,44.45
2019-04-25T18:36:36.167Z,44.54
2019-04-25T18:39:37.824Z,44.74
2019-04-25T18:42:33.166Z,44.61
2019-04-25T18:45:28.140Z,44.48
2019-04-25T18:48:14.798Z,44.42
2019-04-25T18:50:50.048Z,43.94
2019-04-25T18:53:40.978Z,44.38
2019-04-25T18:56:26.336Z,45.13
2019-04-25T18:59:45.990Z,44.81
2019-04-25T19:02:39.783Z,44.70
2019-04-25T19:05:23.335Z,44.23
2019-04-25T19:07:56.677Z,43.75
2019-04-25T19:10:40.813Z,44.31
2019-04-25T19:13:18.016Z,43.91
2019-04-25T19:15:51.919Z,44.50
2019-04-25T19:18:29.702Z,44.12
2019-04-25T19:21:02.992Z,44.66
2019-04-25T19:23:46.144Z,44.57
2019-04-25T19:26:19.382Z,44.13
2019-04-25T19:29:06.536Z,45.09
2019-04-25T19:31:40.903Z,45.11
2019-04-25T19:34:24.256Z,44.92
2019-04-25T19:37:06.782Z,44.81
2019-04-25T19:39:42.815Z,45.11
2019-04-25T19:42:23.224Z,44.83
2019-04-25T19:44:58.825Z,45.03
2019-04-25T19:47:31.989Z,45.51
2019-04-25T19:50:05.978Z,45.75
2019-04-25T19:52:49.727Z,45.70
2019-04-25T19:55:22.906Z,45.95
2019-04-25T19:58:06.419Z,45.55
2019-04-25T20:00:39.883Z,46.13
2019-04-25T20:03:28.817Z,46.34
2019-04-25T20:06:44.025Z,46.51
2019-04-25T20:09:37.053Z,46.52
2019-04-25T20:12:11.093Z,45.07
2019-04-25T20:17:40.097Z,45.03
2019-04-25T20:20:28.458Z,44.88
2019-04-25T20:23:02.921Z,45.67
2019-04-25T20:25:36.451Z,44.96
2019-04-25T20:28:10.328Z,44.95
2019-04-25T20:30:44.556Z,45.31
2019-04-25T20:33:19.293Z,46.85
2019-04-25T20:35:53.281Z,46.34
2019-04-25T20:38:27.251Z,45.90
2019-04-25T20:41:09.722Z,45.69
2019-04-25T20:43:54.983Z,45.06
2019-04-25T20:46:39.831Z,45.54
2019-04-25T20:49:24.709Z,45.40
2019-04-25T20:51:57.914Z,46.40
2019-04-25T20:54:32.046Z,46.14
2019-04-25T20:57:15.001Z,46.89
2019-04-25T20:59:58.106Z,46.97
2019-04-25T21:02:41.785Z,47.01
2019-04-25T21:05:16.358Z,47.09
2019-04-25T21:07:53.273Z,46.77
2019-04-25T21:10:29.306Z,47.31
2019-04-25T21:13:06.068Z,47.22
2019-04-25T21:16:10.041Z,47.25
2019-04-25T21:18:51.102Z,47.46
2019-04-25T21:21:24.952Z,47.44
2019-04-25T21:24:01.693Z,47.01
2019-04-25T21:26:34.924Z,47.63
2019-04-25T21:29:12.564Z,47.34
2019-04-25T21:31:46.353Z,47.60
2019-04-25T21:34:41.440Z,47.81
2019-04-25T21:37:17.207Z,47.57
2019-04-25T21:40:00.989Z,48.24
2019-04-25T21:42:43.042Z,48.53
2019-04-25T21:45:18.425Z,48.48
2019-04-25T21:47:52.716Z,48.16
2019-04-25T21:50:27.129Z,48.93
2019-04-25T21:53:01.304Z,48.81
2019-04-25T21:55:36.646Z,48.76
2019-04-25T21:58:26.009Z,48.99
2019-04-25T22:01:06.116Z,48.80
2019-04-25T22:03:56.418Z,48.47
2019-04-25T22:06:45.313Z,48.41
2019-04-25T22:09:19.896Z,48.62
2019-04-25T22:11:54.765Z,49.62
2019-04-25T22:14:29.243Z,49.11
2019-04-25T22:17:04.338Z,49.24
2019-04-25T22:19:37.910Z,48.93
2019-04-25T22:22:11.653Z,49.20
2019-04-25T22:24:51.225Z,48.64
2019-04-25T22:27:29.784Z,48.43
2019-04-25T22:30:03.981Z,48.75
2019-04-25T22:33:07.802Z,48.14
2019-04-25T22:36:02.139Z,48.42
2019-04-25T22:38:35.993Z,48.61
2019-04-25T22:41:09.893Z,48.31
2019-04-25T22:43:50.559Z,48.08
2019-04-25T22:46:27.235Z,48.72
2019-04-25T22:49:12.507Z,48.15
2019-04-25T22:51:46.003Z,47.62
2019-04-25T22:54:19.768Z,45.57
2019-04-25T22:56:54.882Z,45.07
2019-04-25T22:59:28.341Z,45.81
2019-04-25T23:02:19.948Z,45.96
2019-04-25T23:05:18.556Z,46.31
2019-04-25T23:07:52.613Z,45.60
2019-04-25T23:10:26.361Z,45.20
2019-04-25T23:13:00.188Z,45.39
2019-04-25T23:15:34.140Z,45.27
2019-04-25T23:18:16.461Z,45.87
2019-04-25T23:20:51.073Z,47.43
2019-04-25T23:23:24.491Z,45.67
2019-04-25T23:26:21.808Z,45.92
2019-04-25T23:29:19.512Z,47.21
2019-04-25T23:31:53.127Z,47.67
2019-04-25T23:34:39.152Z,48.25
2019-04-25T23:37:21.519Z,47.97
2019-04-25T23:39:55.741Z,47.94
2019-04-25T23:42:38.429Z,49.64
2019-04-25T23:45:23.665Z,50.54
2019-04-25T23:48:06.222Z,51.12
2019-04-25T23:50:41.997Z,51.02
2019-04-25T23:53:24.375Z,51.26
2019-04-25T23:55:58.340Z,51.14
2019-04-25T23:58:41.810Z,51.90
